Airport View

Enter AWOS ICAO identifier for current METAR.

ex. KFNL

KRNV 051335Z AUTO 10SM CLR 22/19 A3006 RMK AO2 T02240189

5 Aug 2020 13:36

Frequency: 124.175

Phone: 662-843-3021

Other Area AWOS: KGLH - KCKM - KGWO - KLLQ

TAF KGLH 051120Z 0512/0612 02005KT P6SM SCT060 SCT100